Time;durP1;ratioP1;P1;durP2;ratioP2;P2;SDS_P1;SDS_P2;PMS_P1;PMS_P2;Temp;Humidity;BMP_temperature;BMP_pressure;BME280_temperature;BME280_humidity;BME280_pressure;Samples;Min_cycle;Max_cycle;Signal;HPM_P1;HPM_P2
2023/10/28 00:02:23;;;;;;;38.72;19.52;;;;;;;;;;5012170;28;20084;-60
2023/10/28 00:04:48;;;;;;;51.35;21.65;;;;;;;;;;5010780;28;20092;-59
2023/10/28 00:07:13;;;;;;;31.23;18.58;;;;;;;;;;5012159;28;20097;-61
2023/10/28 00:09:40;;;;;;;35.17;20.13;;;;;;;;;;5009800;28;20018;-58
2023/10/28 00:12:08;;;;;;;39.97;20.00;;;;;;;;;;5011701;28;20428;-59
2023/10/28 00:14:33;;;;;;;50.47;21.00;;;;;;;;;;5010757;28;20026;-58
2023/10/28 00:16:58;;;;;;;34.70;18.33;;;;;;;;;;5011752;28;20026;-58
2023/10/28 00:19:24;;;;;;;33.20;19.47;;;;;;;;;;5011875;28;20018;-60
2023/10/28 00:21:49;;;;;;;30.77;18.92;;;;;;;;;;5010092;28;20493;-60
2023/10/28 00:24:14;;;;;;;32.97;18.70;;;;;;;;;;5011155;28;20026;-60
2023/10/28 00:26:40;;;;;;;34.47;18.10;;;;;;;;;;5009806;28;20038;-59
2023/10/28 00:29:05;;;;;;;29.80;16.95;;;;;;;;;;5011835;28;20024;-59
2023/10/28 00:31:31;;;;;;;36.63;20.00;;;;;;;;;;5010254;28;20488;-59
2023/10/28 00:33:56;;;;;;;35.97;20.25;;;;;;;;;;5011146;28;20129;-59
2023/10/28 00:36:22;;;;;;;29.05;17.50;;;;;;;;;;5010250;28;20033;-59
2023/10/28 00:38:47;;;;;;;38.72;21.13;;;;;;;;;;5011651;28;20017;-59
2023/10/28 00:41:17;;;;;;;32.90;19.58;;;;;;;;;;5009603;28;20048;-60
2023/10/28 00:43:42;;;;;;;35.08;21.83;;;;;;;;;;5011552;28;20584;-59
2023/10/28 00:46:07;;;;;;;44.50;20.65;;;;;;;;;;5009877;28;20121;-59
2023/10/28 00:48:33;;;;;;;37.57;18.70;;;;;;;;;;5011336;28;20064;-60
2023/10/28 00:50:58;;;;;;;32.80;19.23;;;;;;;;;;5009478;28;20537;-60
2023/10/28 00:53:24;;;;;;;31.90;16.80;;;;;;;;;;5011469;28;20026;-73
2023/10/28 00:55:51;;;;;;;30.77;17.95;;;;;;;;;;5009642;28;20507;-59
2023/10/28 00:58:16;;;;;;;40.80;21.08;;;;;;;;;;5011371;28;20053;-60
2023/10/28 01:00:41;;;;;;;36.10;18.52;;;;;;;;;;5010035;28;20073;-60
2023/10/28 01:03:09;;;;;;;39.50;16.80;;;;;;;;;;5010670;28;20049;-60
2023/10/28 01:05:34;;;;;;;33.75;18.98;;;;;;;;;;5009464;28;20467;-60
2023/10/28 01:07:59;;;;;;;29.83;17.55;;;;;;;;;;5011315;28;20022;-60
2023/10/28 01:10:25;;;;;;;32.67;18.43;;;;;;;;;;5009099;28;20040;-60
2023/10/28 01:12:50;;;;;;;33.55;17.45;;;;;;;;;;5011382;28;20018;-60
2023/10/28 01:15:16;;;;;;;31.80;18.67;;;;;;;;;;5009725;28;20022;-60
2023/10/28 01:17:42;;;;;;;30.37;16.30;;;;;;;;;;5010589;28;20467;-60
2023/10/28 01:20:09;;;;;;;23.88;16.60;;;;;;;;;;5008308;28;20430;-60
2023/10/28 01:22:34;;;;;;;24.30;15.70;;;;;;;;;;5010755;28;20041;-60
2023/10/28 01:24:59;;;;;;;27.90;16.07;;;;;;;;;;5008989;28;20460;-60
2023/10/28 01:27:24;;;;;;;35.83;16.37;;;;;;;;;;5010818;28;20433;-60
2023/10/28 01:29:51;;;;;;;33.70;14.63;;;;;;;;;;5009600;28;20510;-60
2023/10/28 01:32:16;;;;;;;26.40;14.40;;;;;;;;;;5010835;28;20030;-60
2023/10/28 01:34:59;;;;;;;40.80;14.97;;;;;;;;;;5009365;28;20054;-60
2023/10/28 01:37:24;;;;;;;24.85;14.23;;;;;;;;;;5010990;28;20410;-60
2023/10/28 01:39:51;;;;;;;21.63;13.60;;;;;;;;;;5009125;28;20456;-59
2023/10/28 01:42:17;;;;;;;35.40;14.60;;;;;;;;;;5011129;28;20026;-59
2023/10/28 01:44:42;;;;;;;28.27;13.30;;;;;;;;;;5009189;28;20044;-59
2023/10/28 01:47:08;;;;;;;27.35;14.45;;;;;;;;;;5009917;28;20104;-59
2023/10/28 01:49:34;;;;;;;26.35;14.95;;;;;;;;;;5009545;28;20516;-59
2023/10/28 01:51:59;;;;;;;22.52;13.57;;;;;;;;;;5010843;28;20018;-59
2023/10/28 01:54:24;;;;;;;25.07;13.13;;;;;;;;;;5010419;28;20026;-59
2023/10/28 01:56:49;;;;;;;27.35;13.85;;;;;;;;;;5009274;28;20044;-60
2023/10/28 01:59:14;;;;;;;40.70;15.77;;;;;;;;;;5010656;28;20088;-60
2023/10/28 02:01:39;;;;;;;23.07;11.90;;;;;;;;;;5009094;28;20045;-70
2023/10/28 02:04:06;;;;;;;31.73;13.32;;;;;;;;;;5010308;28;20029;-60
2023/10/28 02:06:31;;;;;;;29.52;13.38;;;;;;;;;;5009065;28;20122;-59
2023/10/28 02:08:56;;;;;;;23.20;12.27;;;;;;;;;;4990466;28;20105;-60
2023/10/28 02:11:23;;;;;;;30.07;14.00;;;;;;;;;;4989633;28;20035;-61
2023/10/28 02:13:48;;;;;;;22.67;12.40;;;;;;;;;;4990899;28;20792;-60
2023/10/28 02:16:14;;;;;;;21.48;13.38;;;;;;;;;;4999608;28;20034;-60
2023/10/28 02:18:40;;;;;;;24.85;12.73;;;;;;;;;;5010764;28;20033;-60
2023/10/28 02:21:05;;;;;;;26.05;11.60;;;;;;;;;;5008610;28;20408;-60
2023/10/28 02:23:30;;;;;;;17.20;13.00;;;;;;;;;;5009853;28;20025;-60
2023/10/28 02:25:55;;;;;;;20.80;11.63;;;;;;;;;;5008787;28;20038;-60
2023/10/28 02:28:21;;;;;;;23.95;11.52;;;;;;;;;;5010298;28;20013;-60
2023/10/28 02:30:46;;;;;;;27.55;11.93;;;;;;;;;;5008858;28;20036;-60
2023/10/28 02:33:11;;;;;;;27.67;12.20;;;;;;;;;;5013117;28;20469;-60
2023/10/28 02:35:36;;;;;;;21.23;11.50;;;;;;;;;;5012271;28;20129;-61
2023/10/28 02:38:02;;;;;;;25.83;11.63;;;;;;;;;;5013291;28;20044;-60
2023/10/28 02:40:27;;;;;;;25.03;12.03;;;;;;;;;;5012648;28;20112;-60
2023/10/28 02:42:52;;;;;;;23.13;14.23;;;;;;;;;;5013618;28;20516;-60
2023/10/28 02:45:17;;;;;;;21.67;11.07;;;;;;;;;;5011804;28;20478;-60
2023/10/28 02:47:43;;;;;;;26.27;12.97;;;;;;;;;;5013533;28;20022;-70
2023/10/28 02:50:08;;;;;;;39.45;12.85;;;;;;;;;;5011935;28;20461;-59
2023/10/28 02:52:34;;;;;;;23.17;12.35;;;;;;;;;;5013514;28;20052;-59
2023/10/28 02:54:59;;;;;;;20.80;11.68;;;;;;;;;;5011935;28;20041;-60
2023/10/28 02:57:24;;;;;;;24.10;11.70;;;;;;;;;;5013508;28;20026;-59
2023/10/28 02:59:49;;;;;;;22.30;10.55;;;;;;;;;;5011897;28;20026;-59
2023/10/28 03:02:14;;;;;;;19.87;9.73;;;;;;;;;;5012651;28;20355;-59
2023/10/28 03:04:40;;;;;;;24.63;12.37;;;;;;;;;;5011886;28;20441;-58
2023/10/28 03:07:05;;;;;;;21.45;10.65;;;;;;;;;;5013146;28;20014;-68
2023/10/28 03:09:30;;;;;;;30.23;11.13;;;;;;;;;;5012951;28;20022;-60
2023/10/28 03:11:55;;;;;;;20.83;12.63;;;;;;;;;;5011509;28;20370;-59
2023/10/28 03:14:22;;;;;;;18.25;10.70;;;;;;;;;;5013138;28;20053;-58
2023/10/28 03:16:47;;;;;;;35.70;11.38;;;;;;;;;;5010868;28;20034;-58
2023/10/28 03:19:12;;;;;;;19.40;9.70;;;;;;;;;;5012659;28;20022;-58
2023/10/28 03:21:38;;;;;;;30.52;12.63;;;;;;;;;;5011397;28;20046;-59
2023/10/28 03:24:03;;;;;;;19.73;10.15;;;;;;;;;;5012676;28;20437;-68
2023/10/28 03:26:28;;;;;;;17.77;9.27;;;;;;;;;;5011078;28;20038;-59
2023/10/28 03:28:53;;;;;;;22.37;10.37;;;;;;;;;;5012565;28;20018;-59
2023/10/28 03:31:18;;;;;;;19.57;9.27;;;;;;;;;;5011105;28;20052;-58
2023/10/28 03:33:45;;;;;;;17.45;9.13;;;;;;;;;;5012622;28;20559;-58
2023/10/28 03:36:10;;;;;;;15.65;9.60;;;;;;;;;;5011244;28;20038;-59
2023/10/28 03:38:35;;;;;;;25.88;10.98;;;;;;;;;;5012397;28;20045;-59
2023/10/28 03:41:07;;;;;;;22.35;8.35;;;;;;;;;;5010739;28;20058;-59
2023/10/28 03:43:32;;;;;;;15.85;8.60;;;;;;;;;;5011715;28;20026;-59
2023/10/28 03:45:57;;;;;;;15.48;8.18;;;;;;;;;;5010193;28;20033;-59
2023/10/28 03:48:23;;;;;;;18.90;8.43;;;;;;;;;;5012410;28;20014;-59
2023/10/28 03:50:55;;;;;;;17.02;7.35;;;;;;;;;;5011088;28;20041;-59
2023/10/28 03:53:20;;;;;;;12.02;8.05;;;;;;;;;;5012182;28;20379;-59
2023/10/28 03:55:46;;;;;;;16.85;8.63;;;;;;;;;;5010881;28;20026;-59
2023/10/28 03:58:11;;;;;;;13.88;6.63;;;;;;;;;;5012093;28;20029;-60
2023/10/28 04:00:36;;;;;;;26.10;9.98;;;;;;;;;;5010260;28;20037;-59
2023/10/28 04:03:02;;;;;;;21.50;8.77;;;;;;;;;;5012073;28;20039;-70
2023/10/28 04:05:27;;;;;;;17.02;8.07;;;;;;;;;;5010653;28;20499;-59
2023/10/28 04:07:52;;;;;;;8.73;6.63;;;;;;;;;;5011868;28;20018;-59
2023/10/28 04:10:18;;;;;;;12.40;5.67;;;;;;;;;;5010824;28;20998;-59
2023/10/28 04:12:43;;;;;;;7.20;5.60;;;;;;;;;;5011942;28;21922;-58
2023/10/28 04:15:11;;;;;;;11.30;5.73;;;;;;;;;;5007751;28;20540;-59
2023/10/28 04:17:36;;;;;;;9.05;5.40;;;;;;;;;;5012090;28;20060;-59
2023/10/28 04:20:03;;;;;;;13.15;4.90;;;;;;;;;;5014408;28;20061;-59
2023/10/28 04:22:28;;;;;;;13.50;6.75;;;;;;;;;;5030815;28;20029;-59
2023/10/28 04:24:54;;;;;;;19.42;5.75;;;;;;;;;;5029208;28;20038;-58
2023/10/28 04:27:19;;;;;;;10.53;5.63;;;;;;;;;;5030829;28;20057;-59
2023/10/28 04:29:45;;;;;;;13.32;6.68;;;;;;;;;;5029499;28;20452;-60
2023/10/28 04:32:10;;;;;;;11.32;5.10;;;;;;;;;;5031341;28;20063;-58
2023/10/28 04:34:35;;;;;;;8.45;4.50;;;;;;;;;;5029244;28;20166;-58
2023/10/28 04:37:00;;;;;;;10.07;5.63;;;;;;;;;;5030869;28;20041;-58
2023/10/28 04:39:25;;;;;;;6.80;5.20;;;;;;;;;;5031576;28;20969;-62
2023/10/28 04:41:52;;;;;;;12.32;5.25;;;;;;;;;;5029309;28;20037;-58
2023/10/28 04:44:17;;;;;;;9.57;4.15;;;;;;;;;;5030953;28;20063;-59
2023/10/28 04:46:42;;;;;;;19.50;5.57;;;;;;;;;;5029274;28;20120;-58
2023/10/28 04:49:10;;;;;;;12.67;6.00;;;;;;;;;;5031028;28;20516;-59
2023/10/28 04:51:35;;;;;;;10.40;5.68;;;;;;;;;;5029236;28;20030;-58
2023/10/28 04:54:00;;;;;;;6.17;5.43;;;;;;;;;;5029586;28;20036;-58
2023/10/28 04:56:25;;;;;;;9.57;6.53;;;;;;;;;;5027993;28;20496;-58
2023/10/28 04:58:50;;;;;;;17.00;6.55;;;;;;;;;;5029799;28;20136;-58
2023/10/28 05:01:15;;;;;;;12.13;6.15;;;;;;;;;;5029068;28;20124;-59
2023/10/28 05:03:41;;;;;;;11.53;7.13;;;;;;;;;;5029681;28;20025;-58
2023/10/28 05:06:09;;;;;;;20.92;9.70;;;;;;;;;;5027385;28;20112;-58
2023/10/28 05:08:34;;;;;;;11.10;5.95;;;;;;;;;;5030407;28;20013;-58
2023/10/28 05:10:59;;;;;;;15.40;8.68;;;;;;;;;;5027739;28;20543;-58
2023/10/28 05:13:25;;;;;;;10.00;6.57;;;;;;;;;;5029263;28;20048;-58
2023/10/28 05:15:50;;;;;;;13.53;7.80;;;;;;;;;;5028659;28;20038;-59
2023/10/28 05:18:15;;;;;;;17.77;7.53;;;;;;;;;;5029114;28;20052;-58
2023/10/28 05:20:40;;;;;;;16.37;7.93;;;;;;;;;;5028329;28;20799;-58
2023/10/28 05:23:05;;;;;;;11.73;7.00;;;;;;;;;;5030321;28;20428;-68
2023/10/28 05:25:31;;;;;;;19.40;8.07;;;;;;;;;;5027283;28;20472;-59
2023/10/28 05:27:56;;;;;;;18.40;8.43;;;;;;;;;;5029654;28;20532;-58
2023/10/28 05:30:21;;;;;;;17.42;7.90;;;;;;;;;;5028366;28;20519;-58
2023/10/28 05:32:46;;;;;;;12.52;8.23;;;;;;;;;;5028748;28;20033;-60
2023/10/28 05:35:13;;;;;;;10.00;7.22;;;;;;;;;;5028347;28;20069;-59
2023/10/28 05:37:38;;;;;;;13.10;7.80;;;;;;;;;;5029961;28;20025;-59
2023/10/28 05:40:04;;;;;;;16.83;8.85;;;;;;;;;;5026754;28;20475;-58
2023/10/28 05:42:30;;;;;;;13.45;7.65;;;;;;;;;;5029439;28;20076;-59
2023/10/28 05:44:55;;;;;;;15.30;7.20;;;;;;;;;;5027436;28;20145;-58
2023/10/28 05:47:20;;;;;;;14.48;7.05;;;;;;;;;;5030268;28;20044;-59
2023/10/28 05:49:45;;;;;;;14.30;7.82;;;;;;;;;;5027033;28;20032;-57
2023/10/28 05:52:12;;;;;;;14.37;8.20;;;;;;;;;;5029251;28;20129;-60
2023/10/28 05:54:38;;;;;;;13.13;7.00;;;;;;;;;;5028504;28;20092;-57
2023/10/28 05:57:03;;;;;;;15.45;7.18;;;;;;;;;;5028609;28;20420;-57
2023/10/28 05:59:28;;;;;;;13.50;7.68;;;;;;;;;;5026678;28;20033;-56
2023/10/28 06:01:53;;;;;;;29.37;11.73;;;;;;;;;;5029491;28;20392;-57
2023/10/28 06:04:21;;;;;;;14.97;8.63;;;;;;;;;;5028586;28;20022;-57
2023/10/28 06:06:46;;;;;;;12.93;8.10;;;;;;;;;;5027242;28;20505;-57
2023/10/28 06:09:13;;;;;;;13.05;8.73;;;;;;;;;;5032138;28;20017;-56
2023/10/28 06:11:38;;;;;;;18.67;9.55;;;;;;;;;;5027371;28;20037;-57
2023/10/28 06:14:03;;;;;;;20.27;8.93;;;;;;;;;;5032828;28;20388;-57
2023/10/28 06:16:29;;;;;;;17.20;8.50;;;;;;;;;;5031558;28;20030;-57
2023/10/28 06:18:54;;;;;;;19.83;9.23;;;;;;;;;;5031967;28;20435;-57
2023/10/28 06:21:19;;;;;;;16.10;8.85;;;;;;;;;;5028977;28;20927;-57
2023/10/28 06:23:44;;;;;;;17.70;9.50;;;;;;;;;;5032508;28;20025;-57
2023/10/28 06:26:10;;;;;;;14.60;8.90;;;;;;;;;;5030062;28;20571;-57
2023/10/28 06:28:37;;;;;;;21.30;8.20;;;;;;;;;;5031259;28;20021;-58
2023/10/28 06:31:02;;;;;;;18.80;10.43;;;;;;;;;;5029870;28;20112;-61
2023/10/28 06:33:27;;;;;;;18.20;8.18;;;;;;;;;;5032135;28;20100;-56
2023/10/28 06:35:52;;;;;;;12.20;8.57;;;;;;;;;;5030282;28;20037;-57
2023/10/28 06:38:18;;;;;;;9.65;7.93;;;;;;;;;;5033120;28;20480;-56
2023/10/28 06:40:44;;;;;;;14.70;7.63;;;;;;;;;;5031484;28;20476;-56
2023/10/28 06:43:11;;;;;;;16.95;8.30;;;;;;;;;;5032529;28;20104;-57
2023/10/28 06:45:36;;;;;;;20.85;8.07;;;;;;;;;;5031180;28;20125;-57
2023/10/28 06:48:03;;;;;;;12.27;7.67;;;;;;;;;;5032415;28;20022;-56
2023/10/28 06:50:28;;;;;;;12.77;8.57;;;;;;;;;;5031251;28;20033;-56
2023/10/28 06:52:54;;;;;;;17.83;9.55;;;;;;;;;;5032672;28;20384;-56
2023/10/28 06:55:19;;;;;;;18.90;8.93;;;;;;;;;;5031295;28;20057;-57
2023/10/28 06:57:44;;;;;;;14.18;9.00;;;;;;;;;;5031512;28;20435;-56
2023/10/28 07:00:13;;;;;;;10.67;8.60;;;;;;;;;;5030177;28;20136;-56
2023/10/28 07:02:42;;;;;;;14.63;9.52;;;;;;;;;;5032135;28;20053;-57
2023/10/28 07:05:08;;;;;;;13.80;7.10;;;;;;;;;;5029487;28;20037;-57
2023/10/28 07:07:34;;;;;;;11.48;7.63;;;;;;;;;;5031508;28;20461;-58
2023/10/28 07:09:59;;;;;;;16.80;9.23;;;;;;;;;;5030051;28;20453;-56
2023/10/28 07:12:24;;;;;;;17.00;7.25;;;;;;;;;;5032284;28;20028;-56
2023/10/28 07:14:49;;;;;;;8.17;5.77;;;;;;;;;;5031179;28;20049;-57
2023/10/28 07:17:14;;;;;;;14.77;7.85;;;;;;;;;;5032230;28;20021;-57
2023/10/28 07:19:40;;;;;;;11.83;7.03;;;;;;;;;;5030707;28;20025;-56
2023/10/28 07:22:05;;;;;;;15.00;7.05;;;;;;;;;;5032284;28;20358;-57
2023/10/28 07:24:31;;;;;;;10.10;7.63;;;;;;;;;;5031225;28;20032;-56
2023/10/28 07:26:56;;;;;;;27.05;8.27;;;;;;;;;;5030799;28;20436;-57
2023/10/28 07:29:22;;;;;;;12.95;7.82;;;;;;;;;;5032576;28;20033;-57
2023/10/28 07:31:47;;;;;;;7.88;6.65;;;;;;;;;;5030152;28;20404;-56
2023/10/28 07:34:12;;;;;;;9.60;6.15;;;;;;;;;;5031531;28;20061;-57
2023/10/28 07:36:38;;;;;;;11.80;6.90;;;;;;;;;;5030922;28;20065;-56
2023/10/28 07:39:03;;;;;;;10.10;6.57;;;;;;;;;;5032189;28;20120;-59
2023/10/28 07:41:29;;;;;;;10.77;6.82;;;;;;;;;;5030207;28;20460;-57
2023/10/28 07:43:55;;;;;;;10.20;5.85;;;;;;;;;;5031703;28;20472;-62
2023/10/28 07:46:20;;;;;;;11.45;6.85;;;;;;;;;;5030381;28;20044;-57
2023/10/28 07:48:45;;;;;;;14.77;8.25;;;;;;;;;;5031597;28;20022;-57
2023/10/28 07:51:13;;;;;;;9.73;6.60;;;;;;;;;;5030229;28;20396;-57
2023/10/28 07:53:38;;;;;;;10.07;5.50;;;;;;;;;;5032098;28;20022;-57
2023/10/28 07:56:03;;;;;;;13.17;8.63;;;;;;;;;;5029929;28;20067;-57
2023/10/28 07:58:29;;;;;;;11.45;6.85;;;;;;;;;;5031627;28;20425;-56
2023/10/28 08:00:54;;;;;;;9.70;6.15;;;;;;;;;;5030074;28;20034;-56
2023/10/28 08:03:19;;;;;;;10.25;6.15;;;;;;;;;;5031374;28;20025;-56
2023/10/28 08:05:45;;;;;;;14.07;6.57;;;;;;;;;;5030330;28;20052;-56
2023/10/28 08:08:10;;;;;;;9.30;6.82;;;;;;;;;;5031290;28;20432;-56
2023/10/28 08:10:38;;;;;;;11.87;6.67;;;;;;;;;;5030225;28;20041;-56
2023/10/28 08:13:03;;;;;;;11.33;6.63;;;;;;;;;;5030884;28;20067;-56
2023/10/28 08:15:29;;;;;;;12.33;5.70;;;;;;;;;;5029997;28;20547;-56
2023/10/28 08:17:55;;;;;;;8.07;6.57;;;;;;;;;;5031326;28;20473;-56
2023/10/28 08:20:20;;;;;;;6.82;6.13;;;;;;;;;;5029399;28;20507;-57
2023/10/28 08:22:45;;;;;;;10.18;7.18;;;;;;;;;;5031392;28;20025;-56
2023/10/28 08:25:15;;;;;;;11.10;7.67;;;;;;;;;;5029575;28;20463;-56
2023/10/28 08:27:40;;;;;;;13.05;6.93;;;;;;;;;;5031009;28;20439;-56
2023/10/28 08:30:07;;;;;;;13.83;6.63;;;;;;;;;;5029125;28;20034;-56
2023/10/28 08:32:32;;;;;;;13.70;7.70;;;;;;;;;;5031127;28;20577;-56
2023/10/28 08:34:57;;;;;;;20.77;8.85;;;;;;;;;;5029083;28;20120;-56
2023/10/28 08:37:23;;;;;;;13.13;8.20;;;;;;;;;;5031253;28;20024;-56
2023/10/28 08:39:48;;;;;;;11.18;8.40;;;;;;;;;;5029375;28;20471;-56
2023/10/28 08:42:13;;;;;;;12.77;7.90;;;;;;;;;;5030643;28;20060;-56
2023/10/28 08:44:40;;;;;;;10.85;7.32;;;;;;;;;;5029430;28;20539;-63
2023/10/28 08:47:08;;;;;;;16.27;7.65;;;;;;;;;;5030196;28;20025;-56
2023/10/28 08:49:38;;;;;;;12.60;7.28;;;;;;;;;;5029073;28;20389;-55
2023/10/28 08:52:04;;;;;;;11.98;5.93;;;;;;;;;;5030906;28;20037;-56
2023/10/28 08:54:30;;;;;;;11.23;5.45;;;;;;;;;;5029450;28;20048;-55
2023/10/28 08:56:59;;;;;;;11.98;6.30;;;;;;;;;;5030189;28;20044;-56
2023/10/28 08:59:25;;;;;;;7.07;5.75;;;;;;;;;;5030952;28;20028;-56
2023/10/28 09:01:50;;;;;;;10.27;6.32;;;;;;;;;;5029091;28;20037;-59
2023/10/28 09:04:16;;;;;;;7.88;4.30;;;;;;;;;;5029554;28;20075;-56
2023/10/28 09:06:42;;;;;;;9.57;5.20;;;;;;;;;;5029015;28;20030;-56
2023/10/28 09:09:12;;;;;;;7.55;5.03;;;;;;;;;;5024469;28;20025;-56
2023/10/28 09:11:37;;;;;;;16.52;5.50;;;;;;;;;;5027427;28;20037;-56
2023/10/28 09:14:07;;;;;;;10.77;4.85;;;;;;;;;;5029964;28;20073;-56
2023/10/28 09:16:32;;;;;;;6.32;4.20;;;;;;;;;;5028998;28;20051;-56
2023/10/28 09:18:58;;;;;;;10.75;5.40;;;;;;;;;;5029579;28;20362;-56
2023/10/28 09:21:23;;;;;;;16.77;5.50;;;;;;;;;;5028891;28;20033;-56
2023/10/28 09:23:49;;;;;;;6.47;4.28;;;;;;;;;;5030163;28;20033;-56
2023/10/28 09:26:14;;;;;;;7.53;3.70;;;;;;;;;;5028235;28;20033;-56
2023/10/28 09:28:42;;;;;;;10.27;4.43;;;;;;;;;;5030242;28;20408;-56
2023/10/28 09:31:07;;;;;;;9.70;4.72;;;;;;;;;;5028328;28;20451;-56
2023/10/28 09:33:33;;;;;;;6.03;5.53;;;;;;;;;;5029770;28;20026;-56
2023/10/28 09:35:58;;;;;;;5.22;3.33;;;;;;;;;;5028632;28;20563;-56
2023/10/28 09:38:23;;;;;;;10.10;4.65;;;;;;;;;;5029770;28;20545;-56
2023/10/28 09:40:49;;;;;;;5.97;3.83;;;;;;;;;;5028220;28;20041;-60
2023/10/28 09:43:15;;;;;;;14.25;5.40;;;;;;;;;;5033335;28;20045;-56
2023/10/28 09:45:41;;;;;;;5.43;4.35;;;;;;;;;;5032813;28;20041;-56
2023/10/28 09:48:15;;;;;;;7.70;4.78;;;;;;;;;;5033987;28;20037;-56
2023/10/28 09:50:44;;;;;;;6.22;4.93;;;;;;;;;;5032067;28;20045;-56
2023/10/28 09:53:15;;;;;;;8.73;4.63;;;;;;;;;;5033265;28;20049;-56
2023/10/28 09:55:41;;;;;;;10.93;5.03;;;;;;;;;;5031991;28;20463;-56
2023/10/28 09:58:07;;;;;;;5.20;4.57;;;;;;;;;;5034032;28;20100;-56
2023/10/28 10:00:33;;;;;;;7.70;4.68;;;;;;;;;;5032444;28;20100;-56
2023/10/28 10:03:03;;;;;;;8.20;5.40;;;;;;;;;;5033175;28;20036;-56
2023/10/28 10:05:37;;;;;;;10.30;4.45;;;;;;;;;;5032096;28;20041;-56
2023/10/28 10:08:02;;;;;;;8.18;3.92;;;;;;;;;;5032365;28;20028;-56
2023/10/28 10:10:28;;;;;;;9.40;4.37;;;;;;;;;;5032179;28;20033;-56
2023/10/28 10:13:02;;;;;;;8.90;4.70;;;;;;;;;;5033002;28;20854;-56
2023/10/28 10:15:30;;;;;;;6.30;3.75;;;;;;;;;;5032354;28;20041;-56
2023/10/28 10:18:07;;;;;;;7.95;3.10;;;;;;;;;;5031897;28;20087;-56
2023/10/28 10:20:33;;;;;;;8.43;4.15;;;;;;;;;;5031736;28;20046;-56
2023/10/28 10:23:01;;;;;;;7.38;3.85;;;;;;;;;;5032540;28;20022;-56
2023/10/28 10:25:30;;;;;;;7.32;4.25;;;;;;;;;;5031146;28;20042;-56
2023/10/28 10:27:55;;;;;;;;;;;;;;;;;;5033037;28;20499;-56
2023/10/28 10:30:21;;;;;;;3.97;3.55;;;;;;;;;;5031961;28;20367;-56
2023/10/28 10:32:47;;;;;;;5.82;3.20;;;;;;;;;;5032954;28;20025;-61
2023/10/28 10:35:28;;;;;;;7.45;3.60;;;;;;;;;;5031002;28;20520;-56
2023/10/28 10:38:00;;;;;;;6.95;4.05;;;;;;;;;;5031045;28;20018;-56
2023/10/28 10:40:26;;;;;;;10.48;4.53;;;;;;;;;;5030376;28;20034;-56
2023/10/28 10:42:55;;;;;;;6.88;4.07;;;;;;;;;;5031557;28;20014;-56
2023/10/28 10:45:22;;;;;;;7.00;4.32;;;;;;;;;;5029991;28;20051;-56
2023/10/28 10:47:48;;;;;;;7.70;3.05;;;;;;;;;;5031821;28;20108;-56
2023/10/28 10:50:13;;;;;;;5.97;3.80;;;;;;;;;;5030242;28;20121;-57
2023/10/28 10:52:39;;;;;;;7.88;4.10;;;;;;;;;;5031664;28;20021;-56
2023/10/28 10:55:04;;;;;;;6.90;2.55;;;;;;;;;;5030155;28;20029;-56
2023/10/28 10:57:30;;;;;;;7.10;4.13;;;;;;;;;;5032414;28;20021;-56
2023/10/28 10:59:55;;;;;;;8.88;3.67;;;;;;;;;;5030718;28;20037;-56
2023/10/28 11:02:21;;;;;;;5.40;3.20;;;;;;;;;;5031653;28;20036;-56
2023/10/28 11:04:47;;;;;;;12.55;3.95;;;;;;;;;;5030485;28;20017;-55
2023/10/28 11:07:12;;;;;;;7.63;3.28;;;;;;;;;;5031274;28;20520;-55
2023/10/28 11:09:40;;;;;;;5.38;2.42;;;;;;;;;;5030201;28;20093;-55
2023/10/28 11:12:05;;;;;;;7.88;3.05;;;;;;;;;;5031759;28;20020;-56
2023/10/28 11:14:30;;;;;;;7.00;2.55;;;;;;;;;;5030075;28;20025;-55
2023/10/28 11:16:55;;;;;;;6.18;3.00;;;;;;;;;;5031173;28;20032;-59
2023/10/28 11:19:21;;;;;;;4.27;2.03;;;;;;;;;;5031776;28;20021;-56
2023/10/28 11:21:46;;;;;;;4.75;2.47;;;;;;;;;;5030263;28;20060;-56
2023/10/28 11:24:14;;;;;;;5.53;2.83;;;;;;;;;;5031029;28;20147;-60
2023/10/28 11:26:40;;;;;;;4.05;2.33;;;;;;;;;;5030237;28;20087;-56
2023/10/28 11:29:06;;;;;;;5.80;2.97;;;;;;;;;;5031612;28;20403;-56
2023/10/28 11:31:31;;;;;;;2.28;2.08;;;;;;;;;;5029885;28;20033;-56
2023/10/28 11:33:57;;;;;;;6.45;2.63;;;;;;;;;;4994903;28;1051104;-56
2023/10/28 11:36:23;;;;;;;6.30;2.38;;;;;;;;;;5030881;28;20135;-56
2023/10/28 11:38:48;;;;;;;5.28;2.58;;;;;;;;;;5032530;28;20386;-56
2023/10/28 11:41:13;;;;;;;7.60;2.33;;;;;;;;;;5030766;28;20041;-55
2023/10/28 11:43:39;;;;;;;12.47;2.70;;;;;;;;;;5030080;28;20499;-56
2023/10/28 11:46:04;;;;;;;5.07;2.50;;;;;;;;;;5027387;28;20033;-56
2023/10/28 11:48:30;;;;;;;10.23;2.30;;;;;;;;;;5031737;28;20017;-59
2023/10/28 11:50:56;;;;;;;7.50;2.38;;;;;;;;;;5030430;28;20543;-56
2023/10/28 11:53:24;;;;;;;13.93;4.82;;;;;;;;;;5031865;28;20013;-62
2023/10/28 11:55:50;;;;;;;5.70;2.20;;;;;;;;;;5030646;28;20396;-56
2023/10/28 11:58:15;;;;;;;6.70;2.90;;;;;;;;;;5031910;28;20013;-56
2023/10/28 12:00:40;;;;;;;5.45;2.53;;;;;;;;;;5029563;28;20470;-56
2023/10/28 12:03:05;;;;;;;5.60;3.27;;;;;;;;;;5031763;28;20488;-55
2023/10/28 12:05:31;;;;;;;5.75;2.53;;;;;;;;;;5029552;28;20045;-56
2023/10/28 12:07:56;;;;;;;6.32;2.85;;;;;;;;;;5030616;28;20021;-56
2023/10/28 12:10:21;;;;;;;8.38;3.33;;;;;;;;;;5030658;28;20040;-56
2023/10/28 12:12:46;;;;;;;6.65;2.13;;;;;;;;;;5031722;28;20488;-56
2023/10/28 12:15:12;;;;;;;4.57;4.15;;;;;;;;;;5028383;28;20110;-56
2023/10/28 12:17:37;;;;;;;3.72;2.33;;;;;;;;;;5029412;28;20460;-55
2023/10/28 12:20:07;;;;;;;4.30;2.87;;;;;;;;;;5029689;28;20520;-56
2023/10/28 12:22:35;;;;;;;3.30;2.28;;;;;;;;;;5031245;28;20447;-56
2023/10/28 12:25:00;;;;;;;5.33;3.60;;;;;;;;;;5029932;28;20622;-56
2023/10/28 12:27:25;;;;;;;4.15;2.20;;;;;;;;;;5031379;28;20098;-56
2023/10/28 12:29:50;;;;;;;7.40;2.47;;;;;;;;;;5029698;28;20040;-56
2023/10/28 12:32:16;;;;;;;3.22;2.22;;;;;;;;;;5031474;28;20025;-63
2023/10/28 12:34:41;;;;;;;3.75;3.38;;;;;;;;;;5029814;28;20045;-56
2023/10/28 12:37:06;;;;;;;7.45;3.80;;;;;;;;;;5031285;28;20017;-56
2023/10/28 12:39:31;;;;;;;7.28;2.92;;;;;;;;;;5029550;28;20030;-55
2023/10/28 12:41:56;;;;;;;8.25;2.95;;;;;;;;;;5031130;28;20017;-56
2023/10/28 12:44:22;;;;;;;6.32;2.20;;;;;;;;;;5031590;28;20021;-56
2023/10/28 12:46:47;;;;;;;4.00;1.80;;;;;;;;;;5029472;28;20029;-56
2023/10/28 12:49:12;;;;;;;5.70;2.47;;;;;;;;;;5030263;28;20017;-56
2023/10/28 12:51:37;;;;;;;9.20;2.25;;;;;;;;;;5029158;28;20571;-56
2023/10/28 12:54:04;;;;;;;6.72;2.30;;;;;;;;;;5030232;28;20519;-56
2023/10/28 12:56:31;;;;;;;6.65;2.78;;;;;;;;;;5029093;28;20555;-57
2023/10/28 12:58:56;;;;;;;10.40;2.90;;;;;;;;;;5030742;28;20523;-56
2023/10/28 13:01:21;;;;;;;5.35;2.15;;;;;;;;;;5029357;28;20037;-56
2023/10/28 13:03:46;;;;;;;9.05;2.25;;;;;;;;;;5022019;28;20409;-56
2023/10/28 13:06:11;;;;;;;5.50;2.23;;;;;;;;;;5009594;28;20065;-67
2023/10/28 13:08:37;;;;;;;7.38;3.80;;;;;;;;;;5011156;28;20494;-56
2023/10/28 13:11:02;;;;;;;5.10;3.23;;;;;;;;;;5009333;28;20065;-61
2023/10/28 13:13:27;;;;;;;2.63;2.28;;;;;;;;;;5011402;28;20018;-56
2023/10/28 13:15:52;;;;;;;14.30;3.58;;;;;;;;;;5025170;28;20056;-56
2023/10/28 13:18:18;;;;;;;7.72;2.40;;;;;;;;;;5027692;28;20021;-56
2023/10/28 13:20:43;;;;;;;4.88;2.08;;;;;;;;;;5028636;28;20045;-56
2023/10/28 13:23:10;;;;;;;9.32;2.72;;;;;;;;;;5030002;28;20029;-56
2023/10/28 13:25:36;;;;;;;7.28;2.90;;;;;;;;;;5028087;28;20037;-56
2023/10/28 13:28:01;;;;;;;5.60;1.88;;;;;;;;;;5027674;28;20532;-56
2023/10/28 13:30:26;;;;;;;8.63;3.53;;;;;;;;;;5025590;28;20033;-56
2023/10/28 13:32:51;;;;;;;9.65;2.65;;;;;;;;;;5029811;28;20021;-56
2023/10/28 13:35:16;;;;;;;6.70;2.70;;;;;;;;;;5027366;28;20475;-59
2023/10/28 13:37:41;;;;;;;9.90;4.53;;;;;;;;;;5029355;28;20030;-57
2023/10/28 13:40:07;;;;;;;4.85;2.25;;;;;;;;;;5028343;28;20452;-56
2023/10/28 13:42:32;;;;;;;8.70;3.22;;;;;;;;;;5028593;28;20033;-56
2023/10/28 13:44:58;;;;;;;5.97;3.03;;;;;;;;;;5027543;28;20041;-56
2023/10/28 13:47:23;;;;;;;4.22;2.80;;;;;;;;;;5029769;28;20491;-56
2023/10/28 13:49:48;;;;;;;9.43;4.33;;;;;;;;;;5026942;28;20057;-56
2023/10/28 13:52:14;;;;;;;2.78;2.42;;;;;;;;;;5029092;28;21101;-56
2023/10/28 13:54:40;;;;;;;8.52;2.50;;;;;;;;;;5028356;28;20032;-56
2023/10/28 13:57:05;;;;;;;9.82;2.78;;;;;;;;;;5028738;28;20006;-56
2023/10/28 13:59:30;;;;;;;6.07;2.63;;;;;;;;;;5028573;28;20071;-53
2023/10/28 14:01:56;;;;;;;15.90;4.57;;;;;;;;;;5029350;28;20041;-56
2023/10/28 14:04:21;;;;;;;4.13;2.70;;;;;;;;;;5028812;28;20492;-56
2023/10/28 14:06:46;;;;;;;5.80;3.15;;;;;;;;;;5027568;28;20061;-56
2023/10/28 14:09:12;;;;;;;9.30;3.72;;;;;;;;;;5029257;28;20026;-56
2023/10/28 14:11:38;;;;;;;4.72;3.63;;;;;;;;;;5027377;28;20033;-59
2023/10/28 14:14:03;;;;;;;7.82;4.03;;;;;;;;;;5029303;28;20025;-56
2023/10/28 14:16:28;;;;;;;9.90;3.65;;;;;;;;;;5028052;28;20196;-56
2023/10/28 14:18:55;;;;;;;13.70;2.60;;;;;;;;;;5027795;28;20021;-56
2023/10/28 14:21:22;;;;;;;8.80;3.60;;;;;;;;;;5027658;28;20455;-56
2023/10/28 14:23:47;;;;;;;8.98;2.92;;;;;;;;;;5028967;28;20035;-56